West Tisbury, MA

6:12 AM EST on February 01, 2015 (GMT -0500)
Martha's Vineyard | Change Station
CLOSE
Current Station
Airport
Location: Martha's Vineyard,
Elevation: 69 ft
Nearby Weather Stations
Active Advisory: Winter Weather Advisory

Elev 69 ft 41.39 °N, 70.61 °W | Updated 19 minutes ago

Clear
Clear
19 °F
Feels Like 5 °F
N
15
Wind Variable Wind from NW
Gusts 25 mph

Today
High -- | Low -- °F
--% Chance of Precip.
Yesterday
High -- | Low -- °F
Precip. -- in
6:54 AM 4:58 PM
Waxing Gibbous, 94% visible
Pressure 30.12 in
Visibility 10.0 miles
Clouds Clear
Windchill 5 °F
Dew Point 6 °F
Humidity 57%
Rainfall 0.00 in
Snow Depth Not available.
UV 0 out of 12
Pollen .10 out of 12
Air Quality Not available.
Flu Activity Not available.
METAR KMVY 011053Z AUTO 31013G22KT 10SM CLR M07/M14 A3012 RMK AO2 PK WND 31026/1035 SLP200 T10721144 $

More Conditions Fewer Conditions

Pressure 30.12 in
Visibility 10.0 miles
Clouds Clear
Windchill 5 °F
Dew Point 6 °F
Humidity 57%
Rainfall 0.00 in
Snow Depth Not available.
UV 0 out of 12
Pollen .10 out of 12
Air Quality Not available.
Flu Activity Not available.
METAR KMVY 011053Z AUTO 31013G22KT 10SM CLR M07/M14 A3012 RMK AO2 PK WND 31026/1035 SLP200 T10721144 $

More Conditions Fewer Conditions

10-Day Weather Forecast

Almanac

Astronomy

Feb. 01, 2015 Rise Set
Actual Time
Civil Twilight
Nautical Twilight
Astronomical Twilight
Moon
Length of Visible Light
Length of Day
Tomorrow will be .
, % of the Moon is Illuminated

Today's Extremes

State Highs State Lows

Community

WunderPhotos

Upload Photos

1,792,345 photos uploaded!

WunderBlogs® & News

Nearby

Air Quality

  Air Quality AQ Index Pollutant
Not available.

Snow Depth

Station Depth Elevation

Earthquake Activity

City Distance Mag. Time & Date
Minimum magnitude displayed is 2.5.

Coastal Water Temperatures

Place Temperature

Nearby Weather Stations